sensor_id;sensor_type;location;lat;lon;timestamp;P1;durP1;ratioP1;P2;durP2;ratioP2
57828;SDS011;43657;52.698;6.314;2024-01-30T00:01:25;49.65;;;45.25;;
57828;SDS011;43657;52.698;6.314;2024-01-30T00:03:50;51.20;;;46.72;;
57828;SDS011;43657;52.698;6.314;2024-01-30T00:06:19;53.13;;;48.33;;
57828;SDS011;43657;52.698;6.314;2024-01-30T00:08:48;53.58;;;48.70;;
57828;SDS011;43657;52.698;6.314;2024-01-30T00:11:14;52.75;;;47.88;;
57828;SDS011;43657;52.698;6.314;2024-01-30T00:13:41;52.50;;;47.58;;
57828;SDS011;43657;52.698;6.314;2024-01-30T00:16:07;53.25;;;48.30;;
57828;SDS011;43657;52.698;6.314;2024-01-30T00:18:34;50.25;;;45.75;;
57828;SDS011;43657;52.698;6.314;2024-01-30T00:20:59;53.05;;;48.28;;
57828;SDS011;43657;52.698;6.314;2024-01-30T00:23:25;56.55;;;51.28;;
57828;SDS011;43657;52.698;6.314;2024-01-30T00:25:51;52.58;;;47.72;;
57828;SDS011;43657;52.698;6.314;2024-01-30T00:28:16;53.63;;;48.67;;
57828;SDS011;43657;52.698;6.314;2024-01-30T00:30:42;54.13;;;49.15;;
57828;SDS011;43657;52.698;6.314;2024-01-30T00:33:08;55.95;;;50.67;;
57828;SDS011;43657;52.698;6.314;2024-01-30T00:35:34;56.58;;;51.42;;
57828;SDS011;43657;52.698;6.314;2024-01-30T00:38:00;58.20;;;52.60;;
57828;SDS011;43657;52.698;6.314;2024-01-30T00:40:26;59.25;;;53.42;;
57828;SDS011;43657;52.698;6.314;2024-01-30T00:42:52;56.83;;;51.67;;
57828;SDS011;43657;52.698;6.314;2024-01-30T00:45:17;56.05;;;50.95;;
57828;SDS011;43657;52.698;6.314;2024-01-30T00:47:43;57.72;;;52.33;;
57828;SDS011;43657;52.698;6.314;2024-01-30T00:50:09;58.70;;;53.10;;
57828;SDS011;43657;52.698;6.314;2024-01-30T00:52:36;58.08;;;52.88;;
57828;SDS011;43657;52.698;6.314;2024-01-30T00:55:04;56.90;;;51.83;;
57828;SDS011;43657;52.698;6.314;2024-01-30T00:57:30;58.45;;;52.90;;
57828;SDS011;43657;52.698;6.314;2024-01-30T00:59:55;60.35;;;54.38;;
57828;SDS011;43657;52.698;6.314;2024-01-30T01:02:22;57.97;;;52.63;;
57828;SDS011;43657;52.698;6.314;2024-01-30T01:04:47;62.38;;;56.50;;
57828;SDS011;43657;52.698;6.314;2024-01-30T01:07:13;58.55;;;52.95;;
57828;SDS011;43657;52.698;6.314;2024-01-30T01:09:38;59.30;;;53.80;;
57828;SDS011;43657;52.698;6.314;2024-01-30T01:12:04;56.78;;;51.63;;
57828;SDS011;43657;52.698;6.314;2024-01-30T01:14:30;59.85;;;54.28;;
57828;SDS011;43657;52.698;6.314;2024-01-30T01:16:56;55.85;;;50.83;;
57828;SDS011;43657;52.698;6.314;2024-01-30T01:19:21;55.08;;;50.03;;
57828;SDS011;43657;52.698;6.314;2024-01-30T01:21:47;58.22;;;53.03;;
57828;SDS011;43657;52.698;6.314;2024-01-30T01:24:13;60.33;;;54.72;;
57828;SDS011;43657;52.698;6.314;2024-01-30T01:26:38;59.55;;;54.00;;
57828;SDS011;43657;52.698;6.314;2024-01-30T01:29:04;58.22;;;52.88;;
57828;SDS011;43657;52.698;6.314;2024-01-30T01:31:38;59.13;;;53.55;;
57828;SDS011;43657;52.698;6.314;2024-01-30T01:34:11;60.90;;;55.05;;
57828;SDS011;43657;52.698;6.314;2024-01-30T01:36:36;58.33;;;52.78;;
57828;SDS011;43657;52.698;6.314;2024-01-30T01:39:02;60.20;;;54.50;;
57828;SDS011;43657;52.698;6.314;2024-01-30T01:41:31;57.83;;;52.50;;
57828;SDS011;43657;52.698;6.314;2024-01-30T01:43:58;56.72;;;51.53;;
57828;SDS011;43657;52.698;6.314;2024-01-30T01:46:26;61.30;;;55.42;;
57828;SDS011;43657;52.698;6.314;2024-01-30T01:48:53;60.05;;;54.22;;
57828;SDS011;43657;52.698;6.314;2024-01-30T01:51:20;58.85;;;53.28;;
57828;SDS011;43657;52.698;6.314;2024-01-30T01:53:46;60.75;;;54.80;;
57828;SDS011;43657;52.698;6.314;2024-01-30T01:56:12;52.55;;;47.90;;
57828;SDS011;43657;52.698;6.314;2024-01-30T01:58:38;62.28;;;56.28;;
57828;SDS011;43657;52.698;6.314;2024-01-30T02:01:04;58.13;;;52.70;;
57828;SDS011;43657;52.698;6.314;2024-01-30T02:03:30;62.70;;;56.58;;
57828;SDS011;43657;52.698;6.314;2024-01-30T02:05:56;59.70;;;54.00;;
57828;SDS011;43657;52.698;6.314;2024-01-30T02:08:22;59.30;;;53.60;;
57828;SDS011;43657;52.698;6.314;2024-01-30T02:10:49;56.58;;;51.33;;
57828;SDS011;43657;52.698;6.314;2024-01-30T02:13:15;55.00;;;50.05;;
57828;SDS011;43657;52.698;6.314;2024-01-30T02:15:40;56.03;;;50.83;;
57828;SDS011;43657;52.698;6.314;2024-01-30T02:18:06;59.13;;;53.60;;
57828;SDS011;43657;52.698;6.314;2024-01-30T02:20:31;57.80;;;52.47;;
57828;SDS011;43657;52.698;6.314;2024-01-30T02:23:00;63.63;;;57.22;;
57828;SDS011;43657;52.698;6.314;2024-01-30T02:25:36;56.03;;;50.83;;
57828;SDS011;43657;52.698;6.314;2024-01-30T02:28:13;63.55;;;57.05;;
57828;SDS011;43657;52.698;6.314;2024-01-30T02:30:39;55.28;;;50.00;;
57828;SDS011;43657;52.698;6.314;2024-01-30T02:33:05;55.15;;;49.97;;
57828;SDS011;43657;52.698;6.314;2024-01-30T02:35:31;54.83;;;49.72;;
57828;SDS011;43657;52.698;6.314;2024-01-30T02:37:58;59.85;;;54.17;;
57828;SDS011;43657;52.698;6.314;2024-01-30T02:40:24;53.92;;;48.78;;
57828;SDS011;43657;52.698;6.314;2024-01-30T02:42:49;57.05;;;51.40;;
57828;SDS011;43657;52.698;6.314;2024-01-30T02:45:15;57.10;;;51.63;;
57828;SDS011;43657;52.698;6.314;2024-01-30T02:47:41;55.70;;;50.42;;
57828;SDS011;43657;52.698;6.314;2024-01-30T02:50:07;56.90;;;51.60;;
57828;SDS011;43657;52.698;6.314;2024-01-30T02:52:32;56.55;;;51.42;;
57828;SDS011;43657;52.698;6.314;2024-01-30T02:54:58;55.47;;;50.25;;
57828;SDS011;43657;52.698;6.314;2024-01-30T02:57:24;61.97;;;55.92;;
57828;SDS011;43657;52.698;6.314;2024-01-30T02:59:50;57.55;;;52.15;;
57828;SDS011;43657;52.698;6.314;2024-01-30T03:02:15;59.08;;;53.35;;
57828;SDS011;43657;52.698;6.314;2024-01-30T03:04:41;56.40;;;51.17;;
57828;SDS011;43657;52.698;6.314;2024-01-30T03:07:07;65.95;;;59.25;;
57828;SDS011;43657;52.698;6.314;2024-01-30T03:09:33;69.10;;;61.65;;
57828;SDS011;43657;52.698;6.314;2024-01-30T03:11:59;57.08;;;51.67;;
57828;SDS011;43657;52.698;6.314;2024-01-30T03:14:24;60.90;;;55.13;;
57828;SDS011;43657;52.698;6.314;2024-01-30T03:16:50;65.85;;;59.00;;
57828;SDS011;43657;52.698;6.314;2024-01-30T03:19:15;64.65;;;57.95;;
57828;SDS011;43657;52.698;6.314;2024-01-30T03:21:42;62.13;;;56.17;;
57828;SDS011;43657;52.698;6.314;2024-01-30T03:24:07;54.72;;;49.47;;
57828;SDS011;43657;52.698;6.314;2024-01-30T03:26:34;58.25;;;52.83;;
57828;SDS011;43657;52.698;6.314;2024-01-30T03:28:59;56.65;;;51.35;;
57828;SDS011;43657;52.698;6.314;2024-01-30T03:31:25;60.17;;;54.60;;
57828;SDS011;43657;52.698;6.314;2024-01-30T03:33:51;60.28;;;54.67;;
57828;SDS011;43657;52.698;6.314;2024-01-30T03:36:16;58.97;;;53.47;;
57828;SDS011;43657;52.698;6.314;2024-01-30T03:38:42;56.85;;;51.63;;
57828;SDS011;43657;52.698;6.314;2024-01-30T03:41:08;58.13;;;52.67;;
57828;SDS011;43657;52.698;6.314;2024-01-30T03:43:34;55.28;;;50.30;;
57828;SDS011;43657;52.698;6.314;2024-01-30T03:46:01;56.38;;;51.17;;
57828;SDS011;43657;52.698;6.314;2024-01-30T03:48:28;53.45;;;48.70;;
57828;SDS011;43657;52.698;6.314;2024-01-30T03:50:54;50.97;;;46.45;;
57828;SDS011;43657;52.698;6.314;2024-01-30T03:53:19;55.25;;;50.05;;
57828;SDS011;43657;52.698;6.314;2024-01-30T03:55:45;50.60;;;46.08;;
57828;SDS011;43657;52.698;6.314;2024-01-30T03:58:11;53.58;;;48.45;;
57828;SDS011;43657;52.698;6.314;2024-01-30T04:00:37;52.03;;;47.17;;
57828;SDS011;43657;52.698;6.314;2024-01-30T04:03:02;47.13;;;42.92;;
57828;SDS011;43657;52.698;6.314;2024-01-30T04:05:28;48.60;;;44.30;;
57828;SDS011;43657;52.698;6.314;2024-01-30T04:07:54;44.70;;;40.78;;
57828;SDS011;43657;52.698;6.314;2024-01-30T04:10:19;46.15;;;42.17;;
57828;SDS011;43657;52.698;6.314;2024-01-30T04:12:45;46.40;;;42.22;;
57828;SDS011;43657;52.698;6.314;2024-01-30T04:15:10;45.65;;;41.45;;
57828;SDS011;43657;52.698;6.314;2024-01-30T04:17:36;44.03;;;40.22;;
57828;SDS011;43657;52.698;6.314;2024-01-30T04:20:02;47.50;;;43.20;;
57828;SDS011;43657;52.698;6.314;2024-01-30T04:22:28;39.58;;;36.25;;
57828;SDS011;43657;52.698;6.314;2024-01-30T04:24:54;46.63;;;42.28;;
57828;SDS011;43657;52.698;6.314;2024-01-30T04:27:19;41.90;;;38.20;;
57828;SDS011;43657;52.698;6.314;2024-01-30T04:29:45;39.47;;;36.17;;
57828;SDS011;43657;52.698;6.314;2024-01-30T04:32:10;44.65;;;40.53;;
57828;SDS011;43657;52.698;6.314;2024-01-30T04:34:36;43.55;;;39.75;;
57828;SDS011;43657;52.698;6.314;2024-01-30T04:37:02;41.03;;;37.42;;
57828;SDS011;43657;52.698;6.314;2024-01-30T04:39:28;43.40;;;39.50;;
57828;SDS011;43657;52.698;6.314;2024-01-30T04:41:53;46.85;;;42.72;;
57828;SDS011;43657;52.698;6.314;2024-01-30T04:44:19;42.08;;;38.35;;
57828;SDS011;43657;52.698;6.314;2024-01-30T04:46:45;41.47;;;37.88;;
57828;SDS011;43657;52.698;6.314;2024-01-30T04:49:10;37.85;;;34.55;;
57828;SDS011;43657;52.698;6.314;2024-01-30T04:51:36;38.90;;;35.67;;
57828;SDS011;43657;52.698;6.314;2024-01-30T04:54:02;40.97;;;37.30;;
57828;SDS011;43657;52.698;6.314;2024-01-30T04:56:27;41.97;;;38.17;;
57828;SDS011;43657;52.698;6.314;2024-01-30T04:58:53;39.03;;;35.63;;
57828;SDS011;43657;52.698;6.314;2024-01-30T05:01:19;39.33;;;35.78;;
57828;SDS011;43657;52.698;6.314;2024-01-30T05:03:44;38.83;;;35.47;;
57828;SDS011;43657;52.698;6.314;2024-01-30T05:06:10;38.15;;;34.75;;
57828;SDS011;43657;52.698;6.314;2024-01-30T05:08:36;39.00;;;35.63;;
57828;SDS011;43657;52.698;6.314;2024-01-30T05:11:02;40.38;;;36.75;;
57828;SDS011;43657;52.698;6.314;2024-01-30T05:13:31;36.58;;;33.38;;
57828;SDS011;43657;52.698;6.314;2024-01-30T05:15:59;37.65;;;34.35;;
57828;SDS011;43657;52.698;6.314;2024-01-30T05:18:28;37.67;;;34.40;;
57828;SDS011;43657;52.698;6.314;2024-01-30T05:20:53;35.55;;;32.63;;
57828;SDS011;43657;52.698;6.314;2024-01-30T05:23:19;34.13;;;31.20;;
57828;SDS011;43657;52.698;6.314;2024-01-30T05:25:45;37.78;;;34.53;;
57828;SDS011;43657;52.698;6.314;2024-01-30T05:28:11;38.55;;;35.13;;
57828;SDS011;43657;52.698;6.314;2024-01-30T05:30:36;33.35;;;30.30;;
57828;SDS011;43657;52.698;6.314;2024-01-30T05:33:02;36.88;;;33.78;;
57828;SDS011;43657;52.698;6.314;2024-01-30T05:35:28;37.08;;;33.72;;
57828;SDS011;43657;52.698;6.314;2024-01-30T05:37:54;35.60;;;32.42;;
57828;SDS011;43657;52.698;6.314;2024-01-30T05:40:20;36.10;;;32.80;;
57828;SDS011;43657;52.698;6.314;2024-01-30T05:42:45;36.65;;;33.45;;
57828;SDS011;43657;52.698;6.314;2024-01-30T05:45:11;36.28;;;32.97;;
57828;SDS011;43657;52.698;6.314;2024-01-30T05:47:36;37.67;;;34.35;;
57828;SDS011;43657;52.698;6.314;2024-01-30T05:50:02;34.70;;;31.63;;
57828;SDS011;43657;52.698;6.314;2024-01-30T05:52:28;34.55;;;31.55;;
57828;SDS011;43657;52.698;6.314;2024-01-30T05:54:54;35.35;;;32.38;;
57828;SDS011;43657;52.698;6.314;2024-01-30T05:57:19;35.60;;;32.50;;
57828;SDS011;43657;52.698;6.314;2024-01-30T05:59:45;32.92;;;30.00;;
57828;SDS011;43657;52.698;6.314;2024-01-30T06:02:12;36.47;;;33.38;;
57828;SDS011;43657;52.698;6.314;2024-01-30T06:04:38;34.00;;;31.00;;
57828;SDS011;43657;52.698;6.314;2024-01-30T06:07:04;34.25;;;31.10;;
57828;SDS011;43657;52.698;6.314;2024-01-30T06:09:31;34.42;;;31.38;;
57828;SDS011;43657;52.698;6.314;2024-01-30T06:11:59;32.83;;;29.92;;
57828;SDS011;43657;52.698;6.314;2024-01-30T06:14:25;31.70;;;28.80;;
57828;SDS011;43657;52.698;6.314;2024-01-30T06:16:50;30.45;;;27.83;;
57828;SDS011;43657;52.698;6.314;2024-01-30T06:19:16;30.17;;;27.67;;
57828;SDS011;43657;52.698;6.314;2024-01-30T06:21:41;28.83;;;26.33;;
57828;SDS011;43657;52.698;6.314;2024-01-30T06:24:07;30.13;;;27.45;;
57828;SDS011;43657;52.698;6.314;2024-01-30T06:26:33;27.38;;;25.10;;
57828;SDS011;43657;52.698;6.314;2024-01-30T06:28:59;30.50;;;27.63;;
57828;SDS011;43657;52.698;6.314;2024-01-30T06:31:25;31.55;;;28.75;;
57828;SDS011;43657;52.698;6.314;2024-01-30T06:33:50;30.85;;;28.10;;
57828;SDS011;43657;52.698;6.314;2024-01-30T06:36:16;30.02;;;27.42;;
57828;SDS011;43657;52.698;6.314;2024-01-30T06:38:41;30.50;;;27.75;;
57828;SDS011;43657;52.698;6.314;2024-01-30T06:41:07;30.25;;;27.55;;
57828;SDS011;43657;52.698;6.314;2024-01-30T06:43:33;31.17;;;28.33;;
57828;SDS011;43657;52.698;6.314;2024-01-30T06:45:58;28.50;;;25.98;;
57828;SDS011;43657;52.698;6.314;2024-01-30T06:48:24;29.35;;;26.65;;
57828;SDS011;43657;52.698;6.314;2024-01-30T06:50:52;28.00;;;25.42;;
57828;SDS011;43657;52.698;6.314;2024-01-30T06:53:19;29.40;;;26.75;;
57828;SDS011;43657;52.698;6.314;2024-01-30T06:55:44;26.63;;;24.33;;
57828;SDS011;43657;52.698;6.314;2024-01-30T06:58:10;30.65;;;27.95;;
57828;SDS011;43657;52.698;6.314;2024-01-30T07:00:36;28.15;;;25.50;;
57828;SDS011;43657;52.698;6.314;2024-01-30T07:03:01;29.98;;;27.25;;
57828;SDS011;43657;52.698;6.314;2024-01-30T07:05:27;29.55;;;26.88;;
57828;SDS011;43657;52.698;6.314;2024-01-30T07:07:53;30.40;;;27.70;;
57828;SDS011;43657;52.698;6.314;2024-01-30T07:10:18;30.08;;;27.23;;
57828;SDS011;43657;52.698;6.314;2024-01-30T07:12:44;29.75;;;27.05;;
57828;SDS011;43657;52.698;6.314;2024-01-30T07:15:10;30.08;;;27.35;;
57828;SDS011;43657;52.698;6.314;2024-01-30T07:17:35;28.42;;;25.88;;
57828;SDS011;43657;52.698;6.314;2024-01-30T07:20:02;29.75;;;27.08;;
57828;SDS011;43657;52.698;6.314;2024-01-30T07:22:34;28.40;;;25.75;;
57828;SDS011;43657;52.698;6.314;2024-01-30T07:25:00;28.55;;;26.05;;
57828;SDS011;43657;52.698;6.314;2024-01-30T07:27:31;28.20;;;25.67;;
57828;SDS011;43657;52.698;6.314;2024-01-30T07:30:02;27.98;;;25.38;;
57828;SDS011;43657;52.698;6.314;2024-01-30T07:32:31;28.35;;;25.83;;
57828;SDS011;43657;52.698;6.314;2024-01-30T07:35:03;28.70;;;26.05;;
57828;SDS011;43657;52.698;6.314;2024-01-30T07:37:29;28.48;;;25.98;;
57828;SDS011;43657;52.698;6.314;2024-01-30T07:39:59;27.65;;;25.15;;
57828;SDS011;43657;52.698;6.314;2024-01-30T07:42:27;27.42;;;25.02;;
57828;SDS011;43657;52.698;6.314;2024-01-30T07:45:00;27.67;;;25.08;;
57828;SDS011;43657;52.698;6.314;2024-01-30T07:47:58;26.35;;;24.05;;
57828;SDS011;43657;52.698;6.314;2024-01-30T07:50:24;27.75;;;25.35;;
57828;SDS011;43657;52.698;6.314;2024-01-30T07:52:50;26.08;;;23.77;;
57828;SDS011;43657;52.698;6.314;2024-01-30T07:55:20;26.13;;;23.70;;
57828;SDS011;43657;52.698;6.314;2024-01-30T07:57:49;27.42;;;25.02;;
57828;SDS011;43657;52.698;6.314;2024-01-30T08:00:17;26.77;;;24.10;;
57828;SDS011;43657;52.698;6.314;2024-01-30T08:02:44;25.35;;;23.00;;
57828;SDS011;43657;52.698;6.314;2024-01-30T08:05:10;25.45;;;23.00;;
57828;SDS011;43657;52.698;6.314;2024-01-30T08:07:36;24.33;;;21.90;;
57828;SDS011;43657;52.698;6.314;2024-01-30T08:10:02;25.45;;;23.15;;
57828;SDS011;43657;52.698;6.314;2024-01-30T08:12:28;24.25;;;22.05;;
57828;SDS011;43657;52.698;6.314;2024-01-30T08:14:53;25.30;;;23.02;;
57828;SDS011;43657;52.698;6.314;2024-01-30T08:17:19;25.23;;;22.95;;
57828;SDS011;43657;52.698;6.314;2024-01-30T08:19:44;23.27;;;21.13;;
57828;SDS011;43657;52.698;6.314;2024-01-30T08:22:11;22.92;;;20.83;;
57828;SDS011;43657;52.698;6.314;2024-01-30T08:24:37;23.88;;;21.58;;
57828;SDS011;43657;52.698;6.314;2024-01-30T08:27:05;22.15;;;20.20;;
57828;SDS011;43657;52.698;6.314;2024-01-30T08:29:31;21.85;;;19.80;;
57828;SDS011;43657;52.698;6.314;2024-01-30T08:31:57;22.48;;;20.48;;
57828;SDS011;43657;52.698;6.314;2024-01-30T08:34:24;21.85;;;19.92;;
57828;SDS011;43657;52.698;6.314;2024-01-30T08:36:53;20.85;;;18.95;;
57828;SDS011;43657;52.698;6.314;2024-01-30T08:39:21;20.80;;;18.98;;
57828;SDS011;43657;52.698;6.314;2024-01-30T08:41:46;22.63;;;20.45;;
57828;SDS011;43657;52.698;6.314;2024-01-30T08:44:12;21.85;;;19.75;;
57828;SDS011;43657;52.698;6.314;2024-01-30T08:46:38;20.33;;;18.20;;
57828;SDS011;43657;52.698;6.314;2024-01-30T08:49:03;21.30;;;19.17;;
57828;SDS011;43657;52.698;6.314;2024-01-30T08:51:30;19.95;;;18.15;;
57828;SDS011;43657;52.698;6.314;2024-01-30T08:53:55;21.00;;;18.98;;
57828;SDS011;43657;52.698;6.314;2024-01-30T08:56:24;20.13;;;18.30;;
57828;SDS011;43657;52.698;6.314;2024-01-30T08:58:50;21.42;;;19.30;;
57828;SDS011;43657;52.698;6.314;2024-01-30T09:01:16;20.70;;;17.95;;
57828;SDS011;43657;52.698;6.314;2024-01-30T09:03:41;21.05;;;19.15;;
57828;SDS011;43657;52.698;6.314;2024-01-30T09:06:10;21.70;;;19.42;;
57828;SDS011;43657;52.698;6.314;2024-01-30T09:08:36;20.45;;;18.50;;
57828;SDS011;43657;52.698;6.314;2024-01-30T09:11:09;21.33;;;19.40;;
57828;SDS011;43657;52.698;6.314;2024-01-30T09:13:35;21.02;;;19.00;;
57828;SDS011;43657;52.698;6.314;2024-01-30T09:16:01;20.00;;;18.27;;
57828;SDS011;43657;52.698;6.314;2024-01-30T09:18:27;20.80;;;18.90;;
57828;SDS011;43657;52.698;6.314;2024-01-30T09:20:56;19.77;;;18.08;;
57828;SDS011;43657;52.698;6.314;2024-01-30T09:23:22;19.98;;;17.98;;
57828;SDS011;43657;52.698;6.314;2024-01-30T09:25:48;18.77;;;16.80;;
57828;SDS011;43657;52.698;6.314;2024-01-30T09:28:14;19.77;;;17.77;;
57828;SDS011;43657;52.698;6.314;2024-01-30T09:30:40;19.40;;;17.60;;
57828;SDS011;43657;52.698;6.314;2024-01-30T09:33:07;18.63;;;16.85;;
57828;SDS011;43657;52.698;6.314;2024-01-30T09:35:35;18.27;;;16.58;;
57828;SDS011;43657;52.698;6.314;2024-01-30T09:38:05;17.80;;;16.10;;
57828;SDS011;43657;52.698;6.314;2024-01-30T09:40:31;18.63;;;16.70;;
57828;SDS011;43657;52.698;6.314;2024-01-30T09:42:59;19.48;;;17.50;;
57828;SDS011;43657;52.698;6.314;2024-01-30T09:45:30;18.17;;;16.27;;
57828;SDS011;43657;52.698;6.314;2024-01-30T09:48:00;17.88;;;16.20;;
57828;SDS011;43657;52.698;6.314;2024-01-30T09:50:31;18.90;;;17.00;;
57828;SDS011;43657;52.698;6.314;2024-01-30T09:53:03;18.30;;;16.50;;
57828;SDS011;43657;52.698;6.314;2024-01-30T09:55:30;17.92;;;16.10;;
57828;SDS011;43657;52.698;6.314;2024-01-30T09:57:56;18.42;;;16.60;;
57828;SDS011;43657;52.698;6.314;2024-01-30T10:00:25;18.45;;;16.58;;
57828;SDS011;43657;52.698;6.314;2024-01-30T10:02:52;18.38;;;16.25;;
57828;SDS011;43657;52.698;6.314;2024-01-30T10:05:23;20.40;;;17.02;;
57828;SDS011;43657;52.698;6.314;2024-01-30T10:07:59;18.27;;;16.33;;
57828;SDS011;43657;52.698;6.314;2024-01-30T10:10:25;19.95;;;17.40;;
57828;SDS011;43657;52.698;6.314;2024-01-30T10:12:53;18.20;;;16.48;;
57828;SDS011;43657;52.698;6.314;2024-01-30T10:15:25;17.92;;;15.85;;
57828;SDS011;43657;52.698;6.314;2024-01-30T10:17:53;16.85;;;15.18;;
57828;SDS011;43657;52.698;6.314;2024-01-30T10:20:19;18.13;;;16.30;;
57828;SDS011;43657;52.698;6.314;2024-01-30T10:22:47;17.85;;;16.15;;
57828;SDS011;43657;52.698;6.314;2024-01-30T10:25:14;18.27;;;16.35;;
57828;SDS011;43657;52.698;6.314;2024-01-30T10:27:41;17.48;;;15.75;;
57828;SDS011;43657;52.698;6.314;2024-01-30T10:30:07;19.33;;;16.40;;
57828;SDS011;43657;52.698;6.314;2024-01-30T10:32:34;18.50;;;16.58;;
57828;SDS011;43657;52.698;6.314;2024-01-30T10:35:03;18.85;;;16.85;;
57828;SDS011;43657;52.698;6.314;2024-01-30T10:37:29;19.55;;;17.55;;
57828;SDS011;43657;52.698;6.314;2024-01-30T10:39:59;18.80;;;16.80;;
57828;SDS011;43657;52.698;6.314;2024-01-30T10:42:31;20.08;;;18.00;;
57828;SDS011;43657;52.698;6.314;2024-01-30T10:45:10;19.58;;;17.67;;
57828;SDS011;43657;52.698;6.314;2024-01-30T10:47:39;19.60;;;17.70;;
57828;SDS011;43657;52.698;6.314;2024-01-30T10:50:08;22.58;;;18.73;;
57828;SDS011;43657;52.698;6.314;2024-01-30T10:52:35;20.52;;;18.00;;
57828;SDS011;43657;52.698;6.314;2024-01-30T10:55:04;21.70;;;19.10;;
57828;SDS011;43657;52.698;6.314;2024-01-30T10:57:33;21.98;;;19.42;;
57828;SDS011;43657;52.698;6.314;2024-01-30T11:00:06;22.30;;;19.65;;
57828;SDS011;43657;52.698;6.314;2024-01-30T11:02:41;21.75;;;19.58;;
57828;SDS011;43657;52.698;6.314;2024-01-30T11:05:10;21.80;;;19.63;;
57828;SDS011;43657;52.698;6.314;2024-01-30T11:07:39;21.73;;;19.10;;
57828;SDS011;43657;52.698;6.314;2024-01-30T11:10:11;22.63;;;19.02;;
57828;SDS011;43657;52.698;6.314;2024-01-30T11:12:40;21.27;;;19.23;;
57828;SDS011;43657;52.698;6.314;2024-01-30T11:15:09;20.42;;;18.33;;
57828;SDS011;43657;52.698;6.314;2024-01-30T11:20:19;20.45;;;18.27;;
57828;SDS011;43657;52.698;6.314;2024-01-30T11:22:45;20.17;;;18.23;;
57828;SDS011;43657;52.698;6.314;2024-01-30T11:25:15;19.33;;;17.52;;
57828;SDS011;43657;52.698;6.314;2024-01-30T11:27:43;20.33;;;17.48;;
57828;SDS011;43657;52.698;6.314;2024-01-30T11:30:10;18.92;;;16.95;;
57828;SDS011;43657;52.698;6.314;2024-01-30T11:32:36;20.17;;;18.13;;
57828;SDS011;43657;52.698;6.314;2024-01-30T11:35:03;18.90;;;17.13;;
57828;SDS011;43657;52.698;6.314;2024-01-30T11:37:36;19.25;;;17.33;;
57828;SDS011;43657;52.698;6.314;2024-01-30T11:42:40;17.17;;;15.43;;
57828;SDS011;43657;52.698;6.314;2024-01-30T11:45:10;15.38;;;13.73;;
57828;SDS011;43657;52.698;6.314;2024-01-30T11:47:36;16.45;;;14.77;;
57828;SDS011;43657;52.698;6.314;2024-01-30T11:50:07;16.40;;;14.63;;
57828;SDS011;43657;52.698;6.314;2024-01-30T11:52:35;16.10;;;14.40;;
57828;SDS011;43657;52.698;6.314;2024-01-30T11:55:02;15.25;;;13.85;;
57828;SDS011;43657;52.698;6.314;2024-01-30T11:57:33;15.77;;;14.10;;
57828;SDS011;43657;52.698;6.314;2024-01-30T12:00:03;15.20;;;13.60;;
57828;SDS011;43657;52.698;6.314;2024-01-30T12:02:40;13.63;;;12.40;;
57828;SDS011;43657;52.698;6.314;2024-01-30T12:05:06;14.30;;;12.80;;
57828;SDS011;43657;52.698;6.314;2024-01-30T12:07:34;14.73;;;12.73;;
57828;SDS011;43657;52.698;6.314;2024-01-30T12:10:01;17.15;;;13.93;;
57828;SDS011;43657;52.698;6.314;2024-01-30T12:12:28;16.10;;;14.52;;
57828;SDS011;43657;52.698;6.314;2024-01-30T12:14:57;14.68;;;11.90;;
57828;SDS011;43657;52.698;6.314;2024-01-30T12:17:29;15.27;;;12.60;;
57828;SDS011;43657;52.698;6.314;2024-01-30T12:22:39;14.25;;;10.27;;
57828;SDS011;43657;52.698;6.314;2024-01-30T12:25:13;13.80;;;10.63;;
57828;SDS011;43657;52.698;6.314;2024-01-30T12:27:47;13.48;;;9.77;;
57828;SDS011;43657;52.698;6.314;2024-01-30T12:30:18;14.18;;;9.70;;
57828;SDS011;43657;52.698;6.314;2024-01-30T12:32:45;13.50;;;8.80;;
57828;SDS011;43657;52.698;6.314;2024-01-30T12:35:15;12.15;;;8.20;;
57828;SDS011;43657;52.698;6.314;2024-01-30T12:37:46;10.05;;;8.27;;
57828;SDS011;43657;52.698;6.314;2024-01-30T12:40:16;9.25;;;7.50;;
57828;SDS011;43657;52.698;6.314;2024-01-30T12:42:42;8.88;;;7.20;;
57828;SDS011;43657;52.698;6.314;2024-01-30T12:45:13;10.75;;;6.32;;
57828;SDS011;43657;52.698;6.314;2024-01-30T12:47:46;8.90;;;6.10;;
57828;SDS011;43657;52.698;6.314;2024-01-30T12:50:13;9.68;;;5.63;;
57828;SDS011;43657;52.698;6.314;2024-01-30T12:52:43;7.80;;;5.65;;
57828;SDS011;43657;52.698;6.314;2024-01-30T12:55:10;8.25;;;4.72;;
57828;SDS011;43657;52.698;6.314;2024-01-30T12:57:35;6.50;;;4.82;;
57828;SDS011;43657;52.698;6.314;2024-01-30T13:00:08;9.77;;;5.95;;
57828;SDS011;43657;52.698;6.314;2024-01-30T13:02:41;8.00;;;6.15;;
57828;SDS011;43657;52.698;6.314;2024-01-30T13:05:28;7.72;;;6.18;;
57828;SDS011;43657;52.698;6.314;2024-01-30T13:07:56;7.60;;;6.13;;
57828;SDS011;43657;52.698;6.314;2024-01-30T13:10:46;7.47;;;6.38;;
57828;SDS011;43657;52.698;6.314;2024-01-30T13:19:21;10.30;;;7.90;;
57828;SDS011;43657;52.698;6.314;2024-01-30T13:21:47;10.63;;;7.78;;
57828;SDS011;43657;52.698;6.314;2024-01-30T13:24:13;8.60;;;7.00;;
57828;SDS011;43657;52.698;6.314;2024-01-30T13:26:39;10.25;;;6.80;;
57828;SDS011;43657;52.698;6.314;2024-01-30T13:29:13;10.68;;;6.68;;
57828;SDS011;43657;52.698;6.314;2024-01-30T13:31:41;9.63;;;7.57;;
57828;SDS011;43657;52.698;6.314;2024-01-30T13:34:07;8.98;;;6.18;;
57828;SDS011;43657;52.698;6.314;2024-01-30T13:36:35;8.70;;;5.70;;
57828;SDS011;43657;52.698;6.314;2024-01-30T13:39:10;7.22;;;5.38;;
57828;SDS011;43657;52.698;6.314;2024-01-30T13:41:37;7.47;;;5.43;;
57828;SDS011;43657;52.698;6.314;2024-01-30T13:44:03;7.60;;;5.00;;
57828;SDS011;43657;52.698;6.314;2024-01-30T13:46:35;8.98;;;5.55;;
57828;SDS011;43657;52.698;6.314;2024-01-30T13:49:01;8.60;;;4.88;;
57828;SDS011;43657;52.698;6.314;2024-01-30T13:51:28;6.78;;;3.97;;
57828;SDS011;43657;52.698;6.314;2024-01-30T13:53:53;5.05;;;3.47;;
57828;SDS011;43657;52.698;6.314;2024-01-30T13:56:19;5.80;;;2.95;;
57828;SDS011;43657;52.698;6.314;2024-01-30T13:58:47;7.68;;;3.30;;
57828;SDS011;43657;52.698;6.314;2024-01-30T14:01:17;5.72;;;3.47;;
57828;SDS011;43657;52.698;6.314;2024-01-30T14:03:42;6.65;;;3.10;;
57828;SDS011;43657;52.698;6.314;2024-01-30T14:06:08;5.57;;;2.80;;
57828;SDS011;43657;52.698;6.314;2024-01-30T14:08:36;7.00;;;2.80;;
57828;SDS011;43657;52.698;6.314;2024-01-30T14:11:02;5.63;;;2.33;;
57828;SDS011;43657;52.698;6.314;2024-01-30T14:13:31;5.20;;;2.72;;
57828;SDS011;43657;52.698;6.314;2024-01-30T14:15:57;5.45;;;2.65;;
57828;SDS011;43657;52.698;6.314;2024-01-30T14:18:26;4.60;;;2.47;;
57828;SDS011;43657;52.698;6.314;2024-01-30T14:20:55;6.35;;;2.70;;
57828;SDS011;43657;52.698;6.314;2024-01-30T14:23:21;4.75;;;2.40;;
57828;SDS011;43657;52.698;6.314;2024-01-30T14:25:50;4.13;;;2.80;;
57828;SDS011;43657;52.698;6.314;2024-01-30T14:28:18;5.43;;;2.72;;
57828;SDS011;43657;52.698;6.314;2024-01-30T14:30:44;4.60;;;2.60;;
57828;SDS011;43657;52.698;6.314;2024-01-30T14:33:10;6.38;;;2.70;;
57828;SDS011;43657;52.698;6.314;2024-01-30T14:35:40;4.80;;;3.00;;
57828;SDS011;43657;52.698;6.314;2024-01-30T14:38:06;5.15;;;3.45;;
57828;SDS011;43657;52.698;6.314;2024-01-30T14:40:32;7.63;;;3.60;;